Celtic Explorer — EIGB — position and weather

sailwx.info

Track history (hours):
 
Tides and Currents Weather Stations Pressure Air Temp Water Temp Dewpoint Dewpoint Depression Visibility Wind Speed Wind Dir Waves Ship Positions

Oceanographic research ship Celtic Explorer (Ireland)

Detailed information on ship capabilities available from University of Delaware's Ocean Information Center.

Last reported at 2018-May-16 21:39 UTC. Time now 2018-May-20 13:48 UTC.
Position N 53°07' W 011°02'.

Type: . MMSI: 250487000.

Date/timePositionNaut miles runAvg speedWind from/ knotsBaromVisibWave heightAir tempDewpointWater temp
2018-May-16 21:39N 53°07' W 011°02'210.0
2018-May-16 21:28N 53°07' W 010°59'810.0
2018-May-16 20:40N 53°08' W 010°46'410.0
2018-May-16 20:19N 53°08' W 010°40'410.1
2018-May-16 19:56N 53°09' W 010°34'610.3
2018-May-16 19:20N 53°10' W 010°24'410.1
2018-May-16 18:56N 53°10' W 010°17'510.1
2018-May-16 18:27N 53°10' W 010°09'710.1
2018-May-16 17:42N 53°11' W 009°56'310.4
2018-May-16 17:27N 53°11' W 009°52'8 1.2
2018-May-16 10:10N 53°12' W 009°38'0 0.3
2018-May-16 09:56N 53°12' W 009°38'  
2018-May-12 17:17N 52°39' W 009°59'11 9.2
2018-May-12 16:05N 52°30' W 010°11'111.4
2018-May-12 16:00N 52°30' W 010°12'611.8
2018-May-12 15:29N 52°25' W 010°19'5 8.9
2018-May-12 14:56N 52°21' W 010°24'510.8
2018-May-12 14:27N 52°17' W 010°30'511.0
2018-May-12 13:59N 52°14' W 010°35'611.0
2018-May-12 13:29N 52°10' W 010°42'11 9.9
2018-May-12 12:24N 51°59' W 010°46'3010.1
2018-May-12 09:26N 51°31' W 010°26'510.5
2018-May-12 08:59N 51°27' W 010°23'510.4
2018-May-12 08:30N 51°23' W 010°19'1510.3
2018-May-12 07:02N 51°10' W 010°07'0 9.9
2018-May-12 07:00N 51°09' W 010°07'  
Track history (hours):
 
Tides and Currents Weather Stations Pressure Air Temp Water Temp Dewpoint Dewpoint Depression Visibility Wind Speed Wind Dir Waves Ship Positions

Oceanographic research ship Celtic Explorer (Ireland)

Detailed information on ship capabilities available from University of Delaware's Ocean Information Center.

Last reported at 2018-May-16 21:39 UTC. Time now 2018-May-20 13:48 UTC.
Position N 53°07' W 011°02'.

Type: . MMSI: 250487000.

Date/timePositionNaut miles runAvg speedWind from/ knotsBaromVisibWave heightAir tempDewpointWater temp
2018-May-16 21:39N 53°07' W 011°02'210.0
2018-May-16 21:28N 53°07' W 010°59'810.0
2018-May-16 20:40N 53°08' W 010°46'410.0
2018-May-16 20:19N 53°08' W 010°40'410.1
2018-May-16 19:56N 53°09' W 010°34'610.3
2018-May-16 19:20N 53°10' W 010°24'410.1
2018-May-16 18:56N 53°10' W 010°17'510.1
2018-May-16 18:27N 53°10' W 010°09'710.1
2018-May-16 17:42N 53°11' W 009°56'310.4
2018-May-16 17:27N 53°11' W 009°52'8 1.2
2018-May-16 10:10N 53°12' W 009°38'0 0.3
2018-May-16 09:56N 53°12' W 009°38'  
2018-May-12 17:17N 52°39' W 009°59'11 9.2
2018-May-12 16:05N 52°30' W 010°11'111.4
2018-May-12 16:00N 52°30' W 010°12'611.8
2018-May-12 15:29N 52°25' W 010°19'5 8.9
2018-May-12 14:56N 52°21' W 010°24'510.8
2018-May-12 14:27N 52°17' W 010°30'511.0
2018-May-12 13:59N 52°14' W 010°35'611.0
2018-May-12 13:29N 52°10' W 010°42'11 9.9
2018-May-12 12:24N 51°59' W 010°46'3010.1
2018-May-12 09:26N 51°31' W 010°26'510.5
2018-May-12 08:59N 51°27' W 010°23'510.4
2018-May-12 08:30N 51°23' W 010°19'1510.3
2018-May-12 07:02N 51°10' W 010°07'0 9.9
2018-May-12 07:00N 51°09' W 010°07'  

Dump ship's entire track history